Time;durP1;ratioP1;P1;durP2;ratioP2;P2;SDS_P1;SDS_P2;PMS_P1;PMS_P2;Temp;Humidity;BMP_temperature;BMP_pressure;BME280_temperature;BME280_humidity;BME280_pressure;Samples;Min_cycle;Max_cycle;Signal;HPM_P1;HPM_P2
2024/04/17 00:02:00;;;;;;;0.28;0.03;;;-0.10;99.90;;;;;;22554817;26;20035;-38
2024/04/17 00:12:04;;;;;;;1.88;0.20;;;-0.20;99.90;;;;;;22624868;26;20096;-39
2024/04/17 00:22:06;;;;;;;0.77;0.10;;;-0.20;99.90;;;;;;22588380;26;20422;-38
2024/04/17 00:32:08;;;;;;;0.32;0.08;;;-0.10;99.90;;;;;;22554419;26;20054;-38
2024/04/17 00:42:10;;;;;;;0.10;0.00;;;-0.10;99.90;;;;;;22553924;26;20066;-38
2024/04/17 00:52:11;;;;;;;0.20;0.10;;;-0.10;99.90;;;;;;22589905;26;20045;-38
2024/04/17 01:02:13;;;;;;;1.77;0.10;;;-0.10;99.90;;;;;;22620557;26;20093;-38
2024/04/17 01:12:15;;;;;;;0.50;0.20;;;0.30;99.90;;;;;;22664255;26;20069;-38
2024/04/17 01:22:17;;;;;;;0.22;0.08;;;0.80;99.90;;;;;;22697279;26;20026;-38
2024/04/17 01:32:19;;;;;;;0.28;0.20;;;0.80;99.90;;;;;;22655150;26;20039;-38
2024/04/17 01:42:20;;;;;;;0.47;0.30;;;0.80;99.90;;;;;;22663144;26;20125;-38
2024/04/17 01:52:25;;;;;;;1.73;0.60;;;0.80;99.90;;;;;;22596142;26;20124;-38
2024/04/17 02:02:27;;;;;;;0.70;0.40;;;0.80;99.90;;;;;;22712905;26;19998;-38
2024/04/17 02:12:29;;;;;;;1.33;0.43;;;1.10;99.90;;;;;;22657219;26;20043;-38
2024/04/17 02:22:30;;;;;;;1.08;0.40;;;1.50;99.90;;;;;;22603640;26;20026;-37
2024/04/17 02:32:32;;;;;;;1.08;0.68;;;1.30;99.90;;;;;;22637150;26;20036;-38
2024/04/17 02:42:34;;;;;;;2.03;0.93;;;0.80;99.90;;;;;;22563059;26;20092;-38
2024/04/17 02:52:38;;;;;;;3.50;0.90;;;0.30;99.90;;;;;;22571047;26;20030;-38
2024/04/17 03:02:43;;;;;;;3.17;1.08;;;0.20;99.90;;;;;;22654823;26;20093;-37
2024/04/17 03:12:45;;;;;;;2.65;1.23;;;0.10;99.90;;;;;;22576125;26;20756;-39
2024/04/17 03:22:46;;;;;;;3.45;1.35;;;0.10;99.90;;;;;;22604495;26;20024;-38
2024/04/17 03:32:48;;;;;;;6.53;1.30;;;0.10;99.90;;;;;;22707725;26;20479;-38
2024/04/17 03:42:50;;;;;;;2.40;1.35;;;-0.10;99.90;;;;;;22647967;26;20031;-37
2024/04/17 03:52:52;;;;;;;2.80;1.10;;;-0.20;99.90;;;;;;22602179;26;20034;-38
2024/04/17 04:02:53;;;;;;;4.97;2.00;;;-0.20;99.90;;;;;;22628239;26;20049;-38
2024/04/17 04:12:55;;;;;;;4.03;1.88;;;-0.20;99.90;;;;;;22677213;26;20119;-38
2024/04/17 04:22:57;;;;;;;4.28;2.22;;;-0.30;99.90;;;;;;22671783;26;20030;-38
2024/04/17 04:32:59;;;;;;;2.58;1.45;;;-0.20;99.90;;;;;;22619056;26;20031;-37
2024/04/17 04:43:01;;;;;;;3.50;1.38;;;0.30;99.90;;;;;;22677093;26;20065;-38
2024/04/17 04:53:03;;;;;;;2.72;1.40;;;0.50;99.90;;;;;;22647920;26;20032;-38
2024/04/17 05:03:04;;;;;;;2.63;1.08;;;1.10;99.90;;;;;;22702456;26;20131;-37
2024/04/17 05:13:06;;;;;;;1.63;1.10;;;1.60;99.90;;;;;;22581302;26;20035;-38
2024/04/17 05:23:08;;;;;;;6.20;1.17;;;1.80;99.90;;;;;;22555428;26;20063;-38
2024/04/17 05:33:10;;;;;;;1.80;0.88;;;1.80;99.90;;;;;;22531272;26;20100;-38
2024/04/17 05:43:15;;;;;;;1.80;0.90;;;1.60;99.90;;;;;;22562841;26;20361;-38
2024/04/17 05:53:17;;;;;;;2.33;0.65;;;1.60;99.90;;;;;;22614915;26;20025;-38
2024/04/17 06:03:19;;;;;;;1.17;0.55;;;1.60;99.90;;;;;;22679855;26;20030;-39
2024/04/17 06:13:21;;;;;;;1.40;0.52;;;1.80;99.90;;;;;;22699953;26;20820;-38
2024/04/17 06:23:22;;;;;;;0.98;0.45;;;1.90;99.90;;;;;;22527375;26;20112;-38
2024/04/17 06:33:27;;;;;;;0.80;0.30;;;1.90;99.90;;;;;;22554583;26;20038;-35
2024/04/17 06:43:29;;;;;;;0.70;0.30;;;2.60;99.90;;;;;;22556798;26;20088;-39
2024/04/17 06:53:31;;;;;;;0.30;0.10;;;4.10;99.90;;;;;;22585237;26;20034;-39
2024/04/17 07:03:33;;;;;;;0.70;0.10;;;6.70;99.90;;;;;;22574048;26;20042;-39
2024/04/17 07:13:34;;;;;;;0.70;0.10;;;6.40;97.60;;;;;;22555272;26;20066;-38
2024/04/17 07:23:38;;;;;;;0.73;0.10;;;6.90;95.60;;;;;;22523308;26;20031;-40
2024/04/17 07:33:40;;;;;;;1.10;0.10;;;7.50;95.00;;;;;;22553598;26;20117;-39
2024/04/17 07:43:42;;;;;;;0.70;0.10;;;7.90;94.50;;;;;;22553935;26;20042;-39
2024/04/17 07:53:44;;;;;;;2.05;0.50;;;8.30;94.50;;;;;;22544616;26;20009;-39
2024/04/17 08:03:45;;;;;;;0.98;0.30;;;8.80;99.90;;;;;;22549873;26;20034;-39
2024/04/17 08:13:48;;;;;;;5.38;0.60;;;9.70;99.90;;;;;;22520297;26;20009;-40
2024/04/17 08:23:50;;;;;;;1.10;0.45;;;10.70;99.90;;;;;;22547839;26;20023;-40
2024/04/17 08:33:52;;;;;;;1.73;0.30;;;11.40;99.90;;;;;;22549035;26;20058;-40
2024/04/17 08:44:00;;;;;;;0.90;0.30;;;11.90;98.00;;;;;;22551719;26;20035;-42
2024/04/17 08:54:06;;;;;;;1.25;0.30;;;13.00;97.80;;;;;;22551070;26;20448;-41
2024/04/17 09:04:09;;;;;;;0.80;0.52;;;13.30;94.60;;;;;;22557686;26;20031;-40
2024/04/17 09:14:11;;;;;;;1.75;0.35;;;12.90;95.10;;;;;;22539953;26;20069;-40
2024/04/17 09:24:16;;;;;;;0.77;0.60;;;12.50;94.10;;;;;;22528727;26;20027;-39
2024/04/17 09:34:18;;;;;;;0.88;0.30;;;11.30;98.70;;;;;;22559519;26;20046;-40
2024/04/17 09:44:23;;;;;;;0.47;0.30;;;11.60;97.90;;;;;;22565501;26;20019;-41
2024/04/17 09:54:26;;;;;;;0.40;0.22;;;13.00;95.70;;;;;;22563359;26;20062;-39
2024/04/17 10:04:30;;;;;;;0.45;0.30;;;12.70;93.10;;;;;;22554202;26;20026;-40
2024/04/17 10:14:34;;;;;;;0.50;0.20;;;12.00;94.70;;;;;;22523491;26;20024;-39
2024/04/17 10:24:36;;;;;;;0.77;0.30;;;11.10;94.10;;;;;;22557705;26;20148;-40
2024/04/17 10:34:46;;;;;;;0.35;0.20;;;10.50;93.20;;;;;;22556051;26;20109;-40
2024/04/17 10:44:52;;;;;;;0.17;0.00;;;9.90;92.80;;;;;;22554680;26;20104;-39
2024/04/17 10:54:59;;;;;;;0.63;0.00;;;9.50;92.50;;;;;;22541009;26;20027;-39
2024/04/17 11:05:07;;;;;;;0.50;0.30;;;9.30;92.40;;;;;;22560174;26;20042;-39
2024/04/17 11:15:10;;;;;;;1.58;0.50;;;9.40;98.80;;;;;;22551542;26;20034;-39
2024/04/17 11:25:16;;;;;;;0.60;0.30;;;9.40;99.90;;;;;;22557280;26;20007;-41
2024/04/17 11:35:18;;;;;;;0.50;0.20;;;9.40;98.80;;;;;;22553406;26;20489;-39
2024/04/17 11:45:20;;;;;;;0.50;0.20;;;9.70;97.90;;;;;;22551255;26;20035;-39
2024/04/17 11:55:24;;;;;;;0.82;0.20;;;10.10;96.00;;;;;;22546433;26;20023;-39
2024/04/17 12:05:26;;;;;;;0.17;0.00;;;10.60;96.30;;;;;;22554683;26;20901;-39
2024/04/17 12:15:28;;;;;;;0.40;0.10;;;11.00;93.30;;;;;;22527613;26;20038;-39
2024/04/17 12:35:50;;;;;;;2.60;0.57;;;11.40;99.90;;;;;;22551310;26;20399;-39
2024/04/17 12:45:52;;;;;;;5.15;2.75;;;11.40;99.90;;;;;;22520596;26;20121;-39
2024/04/17 12:55:54;;;;;;;6.95;2.60;;;10.90;99.90;;;;;;22511664;26;20092;-39
2024/04/17 13:06:04;;;;;;;5.95;3.63;;;10.50;99.90;;;;;;22549934;26;20136;-38
2024/04/17 13:16:06;;;;;;;9.98;3.80;;;10.50;99.90;;;;;;22547030;26;20496;-38
2024/04/17 13:26:08;;;;;;;4.38;2.20;;;10.40;99.90;;;;;;22537614;26;20208;-39
2024/04/17 13:36:11;;;;;;;3.20;1.95;;;9.80;99.90;;;;;;22524761;26;20030;-39
2024/04/17 13:46:16;;;;;;;2.45;1.60;;;9.80;99.90;;;;;;22554794;26;20050;-39
2024/04/17 13:56:19;;;;;;;4.05;1.90;;;9.90;99.90;;;;;;22554348;26;20030;-39
2024/04/17 14:06:22;;;;;;;5.25;2.15;;;10.40;99.90;;;;;;22372577;26;20098;-39
2024/04/17 14:16:24;;;;;;;5.22;2.55;;;10.30;99.90;;;;;;22222999;26;20027;-38
2024/04/17 14:26:26;;;;;;;3.13;1.00;;;9.10;99.90;;;;;;22340090;26;20341;-38
2024/04/17 14:36:27;;;;;;;3.22;1.50;;;8.40;99.90;;;;;;22523525;26;20031;-38
2024/04/17 14:46:30;;;;;;;1.30;0.50;;;7.60;99.70;;;;;;22556391;26;20101;-38
2024/04/17 14:56:32;;;;;;;0.73;0.10;;;7.10;99.90;;;;;;22555036;26;20027;-38
2024/04/17 15:06:41;;;;;;;1.15;0.52;;;7.60;97.90;;;;;;22554245;26;20085;-38
2024/04/17 15:16:43;;;;;;;0.95;0.28;;;8.00;97.90;;;;;;22557665;26;20876;-40
2024/04/17 15:26:53;;;;;;;1.27;0.10;;;9.50;96.80;;;;;;22652579;26;20065;-39
2024/04/17 15:36:55;;;;;;;0.50;0.10;;;9.40;92.40;;;;;;22596855;26;20023;-39
2024/04/17 15:46:57;;;;;;;0.10;0.10;;;9.00;92.50;;;;;;22459620;26;20046;-39
2024/04/17 15:56:59;;;;;;;2.28;0.10;;;8.70;92.90;;;;;;22549514;26;20036;-38
2024/04/17 16:07:01;;;;;;;0.00;0.00;;;8.10;89.80;;;;;;22551697;26;20018;-39
2024/04/17 16:17:05;;;;;;;0.30;0.00;;;7.50;93.60;;;;;;22548395;26;20031;-38
2024/04/17 16:27:07;;;;;;;0.10;0.00;;;7.50;88.60;;;;;;22549363;26;20039;-39
2024/04/17 16:37:10;;;;;;;0.52;0.00;;;7.40;96.10;;;;;;22549319;26;20027;-38
2024/04/17 16:47:12;;;;;;;0.43;0.20;;;7.50;97.30;;;;;;22551772;26;20439;-38
2024/04/17 16:57:15;;;;;;;1.63;0.17;;;7.10;96.60;;;;;;22611191;26;20034;-38
2024/04/17 17:07:17;;;;;;;1.02;0.20;;;6.50;96.20;;;;;;22559978;26;20105;-39
2024/04/17 17:17:18;;;;;;;0.20;0.10;;;6.00;96.70;;;;;;22556299;26;20027;-38
2024/04/17 17:27:21;;;;;;;0.95;0.10;;;5.60;98.80;;;;;;22680174;26;20363;-38
2024/04/17 17:37:23;;;;;;;7.45;3.70;;;5.00;98.00;;;;;;22646848;26;20117;-38
2024/04/17 17:47:25;;;;;;;2.35;0.60;;;4.80;97.80;;;;;;22562329;26;20027;-38
2024/04/17 17:57:27;;;;;;;0.25;0.10;;;4.90;96.50;;;;;;22561888;26;20445;-38
2024/04/17 18:07:28;;;;;;;0.32;0.00;;;5.00;95.80;;;;;;22578862;26;20027;-38
2024/04/17 18:17:30;;;;;;;0.15;0.00;;;4.90;97.30;;;;;;22560588;26;20035;-38
2024/04/17 18:27:32;;;;;;;0.10;0.00;;;4.60;98.30;;;;;;22628181;26;20057;-38
2024/04/17 18:37:34;;;;;;;0.30;0.00;;;4.30;96.80;;;;;;22604097;26;20028;-38
2024/04/17 18:47:36;;;;;;;0.25;0.10;;;4.10;96.40;;;;;;22687383;26;20093;-38
2024/04/17 18:57:41;;;;;;;0.20;0.00;;;3.90;97.40;;;;;;22673175;26;20038;-38
2024/04/17 19:07:47;;;;;;;0.43;0.10;;;3.80;98.10;;;;;;22600888;26;20022;-37
2024/04/17 19:17:49;;;;;;;3.83;0.30;;;3.90;99.90;;;;;;22708822;26;20034;-38
2024/04/17 19:27:53;;;;;;;1.55;0.05;;;3.50;99.90;;;;;;22707197;26;20113;-38
2024/04/17 19:37:55;;;;;;;0.65;0.47;;;3.40;99.30;;;;;;22657933;26;20026;-38
2024/04/17 19:47:58;;;;;;;0.10;0.00;;;3.90;95.40;;;;;;22675519;26;20049;-38
2024/04/17 19:58:00;;;;;;;0.10;0.00;;;4.10;94.70;;;;;;22680279;26;20027;-39
2024/04/17 20:08:03;;;;;;;0.45;0.10;;;4.20;93.50;;;;;;22704724;26;20029;-38
2024/04/17 20:18:07;;;;;;;6.82;3.90;;;4.10;95.50;;;;;;22704852;26;20065;-39
2024/04/17 20:28:13;;;;;;;1.85;0.00;;;3.80;96.60;;;;;;22703602;26;20022;-38
2024/04/17 20:38:18;;;;;;;0.75;0.40;;;3.60;97.20;;;;;;22593717;26;20041;-38
2024/04/17 20:48:22;;;;;;;0.28;0.03;;;3.50;97.70;;;;;;22668653;26;20050;-37
2024/04/17 20:58:25;;;;;;;0.35;0.10;;;3.40;97.70;;;;;;22680497;26;20096;-38
2024/04/17 21:08:29;;;;;;;1.00;0.15;;;3.20;98.50;;;;;;22668313;26;20026;-38
2024/04/17 21:18:34;;;;;;;1.60;0.10;;;3.10;98.50;;;;;;22668114;26;20061;-38
2024/04/17 21:28:43;;;;;;;1.42;0.40;;;3.10;99.10;;;;;;22699049;26;20083;-38
2024/04/17 21:38:45;;;;;;;2.17;0.10;;;2.90;99.90;;;;;;22619146;26;20026;-38
2024/04/17 21:48:47;;;;;;;0.95;0.13;;;2.80;99.90;;;;;;22624964;26;20038;-38
2024/04/17 21:58:53;;;;;;;0.30;0.10;;;2.90;99.90;;;;;;22684342;26;20026;-38
2024/04/17 22:08:55;;;;;;;0.00;0.00;;;2.70;99.90;;;;;;22711143;26;20029;-38
2024/04/17 22:18:57;;;;;;;0.00;0.00;;;2.60;99.90;;;;;;22711943;26;20038;-38
2024/04/17 22:28:59;;;;;;;0.10;0.00;;;2.70;99.90;;;;;;22678289;26;20022;-38
2024/04/17 22:39:00;;;;;;;0.38;0.00;;;2.80;99.90;;;;;;22662097;26;20092;-37
2024/04/17 22:49:09;;;;;;;0.30;0.00;;;2.80;99.60;;;;;;22633315;26;20026;-38
2024/04/17 22:59:10;;;;;;;0.00;0.00;;;2.70;99.80;;;;;;22702391;26;20030;-38
2024/04/17 23:09:12;;;;;;;0.15;0.00;;;2.70;99.70;;;;;;22708578;26;20403;-38
2024/04/17 23:19:16;;;;;;;0.45;0.00;;;2.80;99.50;;;;;;22708342;26;20133;-38
2024/04/17 23:29:17;;;;;;;0.00;0.00;;;2.80;99.10;;;;;;22707122;26;20030;-38
2024/04/17 23:39:19;;;;;;;0.17;0.00;;;2.40;99.90;;;;;;22627946;26;20026;-38
2024/04/17 23:49:21;;;;;;;0.00;0.00;;;2.10;99.90;;;;;;22658089;26;20066;-39
2024/04/17 23:59:26;;;;;;;0.00;0.00;;;1.70;99.90;;;;;;22702116;26;20050;-37
